Pagina principale
METAR-TAF:

METAR-TAF

Aeroporti :

Tabarka, Tunisia

latitudine: 36-57N, longitudine: 008-45E, altezza: 20 m

Osservazione

Il bollettino è stato emesso 33 minuti fa, alle 10:00 UTC
Vento 10 kt da est/nord-est
Temperature 24°C
Umidità 50%
Pressione 1020 hPa
Visibilità 10 km o più
Poco nuvoloso ad un'altezza di 2000 ft

METAR: DTKA 211000Z 06010KT 9999 FEW020 24/13 Q1020 NOSIG

Ora: 11:33 (10:33 UTC)

Previsione

Il bollettino è stato emesso 1 ora e 20 minuti fa, alle 09:13 UTC
Previsione valida dal 21 alle 10 UTC al 21 alle 19 UTC
Vento 8 kt da nord-est
Visibilità 10 km o più
Nubi sparse ad un'altezza di 2000 ft
Temporaneamente
dal 21 alle 12 UTC al 21 alle 16 UTC
Vento 18 kt da nord-est

TAF: DTKA 210913Z 2110/2119 05008KT 9999 SCT020 TEMPO 2112/2116 05018KT

Osservazioni e previsioni meteorologiche di più di 4000 aeroporti (messaggi METAR e TAF).

Le stazioni disponibili sono rappresentate dai dischi gialli e rossi sulla carta.

Puntare il mouse per vedere il nome della stazione.

Clicca sopra per visualizzare le osservazioni e previsioni meteorologiche.

Per cambiare la mappa : fare clic sui pulsanti verdi con una croce nera per ingrandire, il pulsante verde con un trattino per diminuire, o sulla freccia verde per le mappe adiacenti.


METAR-TAF: